Bookmark and Share
Track history (hours):
 

Seabourn Quest

Last reported at 2014-Apr-17 06:33 UTC. Time now 2014-Apr-17 07:03 UTC.
Position N 37°56' E 023°38'.

Length 198 m; draft 6.7 m.

Type: Passenger vessel. MMSI: 311038900.

NotesDate/timePositionNaut miles runAvg speedWind from/ knotsBaromVisibWave heightAir tempDewpointWater temp
2014-Apr-17 06:33N 37°56' E 023°38'0 0.0
2014-Apr-17 05:33N 37°56' E 023°38'0 0.0
2014-Apr-17 04:33N 37°56' E 023°38'1 0.6
2014-Apr-17 03:33N 37°56' E 023°37'4 4.0
2014-Apr-17 02:33N 37°52' E 023°37'1312.6
2014-Apr-17 01:33N 37°41' E 023°45'34 8.4
2014-Apr-16 21:29N 37°13' E 024°09'3 5.7
2014-Apr-16 21:00N 37°12' E 024°12'12 8.3 200 / 251011.010.8 16.6 11.7
2014-Apr-16 19:31N 37°16' E 024°27'7 7.4
2014-Apr-16 18:32N 37°17' E 024°36'7 7.6
2014-Apr-16 17:33N 37°19' E 024°45'7 7.1
2014-Apr-16 16:31N 37°20' E 024°54'6 6.7
2014-Apr-16 15:33N 37°23' E 025°01'5 4.9
2014-Apr-16 14:31N 37°26' E 024°57'0 0.0
2014-Apr-16 13:29N 37°26' E 024°57'0 0.0
2014-Apr-16 12:31N 37°26' E 024°57'0 0.0
2014-Apr-16 11:31N 37°26' E 024°57'0 0.0
2014-Apr-16 10:32N 37°26' E 024°57'0 0.0
2014-Apr-16 09:32N 37°26' E 024°57'0 0.0
2014-Apr-16 08:33N 37°26' E 024°57'0 0.0
2014-Apr-16 07:33N 37°26' E 024°57'0 0.0
2014-Apr-16 06:30N 37°26' E 024°57'0 0.0
2014-Apr-16 05:33N 37°26' E 024°57'0 0.0
2014-Apr-16 04:31N 37°26' E 024°57'6 6.0
2014-Apr-16 03:33N 37°24' E 025°03'1312.5
2014-Apr-16 02:33N 37°20' E 025°18'1613.0
2014-Apr-16 01:19N 37°19' E 025°38'1013.1
2014-Apr-16 00:33N 37°19' E 025°51'1313.2
2014-Apr-15 23:32N 37°18' E 026°08'1211.7
2014-Apr-15 22:29N 37°13' E 026°22'7 7.9
2014-Apr-15 21:33N 37°14' E 026°31'25384546.1
2014-Apr-15 21:00N 37°12' W 026°36'25483205.6 200 / 141013.510.8 17.1 12.9
2014-Apr-15 20:12N 37°14' E 026°44'12 7.1
2014-Apr-15 18:30N 37°09' E 026°58'47 2.2
2014-Apr-14 21:00N 36°30' E 027°30'52 2.2 variable / 31014.010.8 17.1 12.9
2014-Apr-13 21:30N 35°49' E 026°51'26105149.0
2014-Apr-13 21:00N 35°48' W 026°48'26035973.1 140 / 71015.0 0.517.0 18.0
2014-Apr-13 20:33N 35°42' E 026°40'1212.1
2014-Apr-13 19:33N 35°36' E 026°26'1412.4
2014-Apr-13 18:26N 35°33' E 026°10'1212.3
2014-Apr-13 17:28N 35°30' E 025°56'1312.4
2014-Apr-13 16:27N 35°27' E 025°41'510.7
2014-Apr-13 16:00N 35°24' E 025°36'915.3 140 / 101014.0 5.4 17.7 12.7
2014-Apr-13 15:25N 35°24' E 025°25'1412.1
2014-Apr-13 14:17N 35°21' E 025°09'99 5.7
2014-Apr-12 21:00N 35°48' E 023°12'2102175.2 260 / 101018.510.8 17.3 12.2
2014-Apr-12 09:00N 36°36' W 020°12'1885471.2 250 / 101017.0 0.519.0 18.0
2014-Apr-12 05:00N 36°54' E 019°00'161455.6 280 / 131015.010.8 16.7 11.7
2014-Apr-11 00:00N 39°00' W 015°00'1385692.5 260 / 141019.0 0.516.0 16.0
2014-Apr-10 22:00N 39°30' E 014°48'6714.8 320 / 111018.027.0 15.6 11.3
2014-Apr-10 17:30N 40°32' E 014°18'510.3
2014-Apr-10 17:00N 40°30' E 014°12'1738.1 300 / 181015.0 5.4 17.0 11.7
2014-Apr-10 16:33N 40°46' E 014°17'123070.0
2014-Apr-09 23:00N 40°48' W 012°48'11411141.4 180 / 61018.0 0.515.0
2014-Apr-09 22:00N 41°12' E 012°24'6015.0 070 / 71017.0 16.7 11.5
2014-Apr-09 18:00N 42°00' E 011°36'7 0.6 340 / 131018.010.8 18.0 11.6
2014-Apr-09 06:00N 42°06' E 011°42'64 8.0 variable / 51016.0 5.4 17.3 10.9
2014-Apr-08 22:00N 42°42' E 010°30'5011.1 340 / 131018.527.0 15.8 10.9
2014-Apr-08 17:33N 43°30' E 010°12'5 5.4
2014-Apr-08 16:33N 43°33' E 010°18'0 0.0
2014-Apr-08 15:33N 43°33' E 010°18'0 0.0
2014-Apr-08 14:33N 43°33' E 010°18'0 0.0
2014-Apr-08 13:28N 43°33' E 010°18'0 0.0
2014-Apr-08 12:33N 43°33' E 010°18'8921594.1
2014-Apr-08 12:00N 43°30' W 010°12'8922025.6 300 / 131017.0 17.0 10.0
2014-Apr-08 11:33N 43°33' E 010°18'0 0.0
2014-Apr-08 10:33N 43°33' E 010°18'0 0.0
2014-Apr-08 09:33N 43°33' E 010°18'0 0.0
2014-Apr-08 08:32N 43°33' E 010°18'0 0.0
2014-Apr-08 07:32N 43°33' E 010°18'0 0.0
2014-Apr-08 06:32N 43°33' E 010°18'0 0.0
2014-Apr-08 05:33N 43°33' E 010°18'0 0.0
2014-Apr-08 04:33N 43°33' E 010°18'7 6.9
2014-Apr-08 03:33N 43°28' E 010°11'1312.8
2014-Apr-08 02:33N 43°19' E 009°59'1212.2
2014-Apr-08 01:33N 43°14' E 009°43'1212.3
2014-Apr-08 00:33N 43°09' E 009°28'1212.3
2014-Apr-07 23:33N 43°05' E 009°12'1212.0
2014-Apr-07 22:33N 42°60' E 008°57'1212.1
2014-Apr-07 21:33N 42°54' E 008°43'1412.4
2014-Apr-07 20:26N 42°47' E 008°26'3715.0
2014-Apr-07 18:00N 42°30' E 007°42'2510.0 250 / 91020.010.8 16.3 9.8
2014-Apr-07 15:30N 42°19' E 007°12'1212.4
2014-Apr-07 14:31N 42°13' E 006°57'6081168.9
2014-Apr-07 14:00N 42°06' W 006°42'585386.8 230 / 131016.0 0.518.0 17.0
2014-Apr-07 12:29N 42°01' E 006°25'1714.6
2014-Apr-07 11:18N 41°53' E 006°05'1214.7
2014-Apr-07 10:31N 41°47' E 005°51'1817.5
2014-Apr-07 09:30N 41°39' E 005°30'2117.1
2014-Apr-07 08:15N 41°29' E 005°05'1520.9
2014-Apr-07 07:31N 41°22' E 004°47'  

Dump ship's entire track history

sailing weather and tide predictions

Seabourn Quest — C6YZ5 — position and weather